createdAt,value
2023-02-07T00:01:45.125Z,168.2
2023-02-07T00:03:51.197Z,129.8
2023-02-07T00:05:57.272Z,127.4
2023-02-07T00:08:03.352Z,153.3
2023-02-07T00:10:09.426Z,164
2023-02-07T00:12:15.527Z,165.8
2023-02-07T00:14:24.490Z,146.8
2023-02-07T00:16:30.638Z,160.1
2023-02-07T00:18:36.629Z,154.5
2023-02-07T00:22:48.765Z,140.5
2023-02-07T00:24:54.827Z,154.8
2023-02-07T00:27:00.908Z,187
2023-02-07T00:29:09.847Z,152.8
2023-02-07T00:31:16.060Z,157.5
2023-02-07T00:33:21.992Z,170.3
2023-02-07T00:35:47.363Z,143.8
2023-02-07T00:37:53.402Z,151.4
2023-02-07T00:40:01.065Z,153.3
2023-02-07T00:42:09.901Z,161
2023-02-07T00:46:22.085Z,185.4
2023-02-07T00:48:28.054Z,166.7
2023-02-07T00:50:34.145Z,178.9
2023-02-07T00:52:40.178Z,185.4
2023-02-07T00:54:46.190Z,177.4
2023-02-07T00:56:55.146Z,191.4
2023-02-07T00:59:01.252Z,212.9
2023-02-07T01:01:07.309Z,205.8
2023-02-07T01:03:13.301Z,225.2
2023-02-07T01:07:25.385Z,233.6
2023-02-07T01:09:31.460Z,201.1
2023-02-07T01:11:40.376Z,237.8
2023-02-07T01:17:58.512Z,209.8
2023-02-07T01:20:04.555Z,202.1
2023-02-07T01:22:10.626Z,221.5
2023-02-07T01:24:16.633Z,240.9
2023-02-07T01:30:37.707Z,217.6
2023-02-07T01:33:48.188Z,194.5
2023-02-07T01:35:54.218Z,219.6
2023-02-07T01:38:00.231Z,229.3
2023-02-07T01:42:15.216Z,244.7
2023-02-07T01:44:21.236Z,201.1
2023-02-07T01:46:27.324Z,168.5
2023-02-07T01:48:33.333Z,212.8
2023-02-07T01:50:39.348Z,184.1
2023-02-07T01:52:45.386Z,185.1
2023-02-07T01:54:54.285Z,201.9
2023-02-07T02:05:24.409Z,189.4
2023-02-07T02:07:30.443Z,169.1
2023-02-07T02:13:51.404Z,195.9
2023-02-07T02:15:57.473Z,236.8
2023-02-07T02:18:03.437Z,168
2023-02-07T02:20:09.439Z,206.1
2023-02-07T02:22:15.475Z,193.2
2023-02-07T02:24:22.191Z,225.2
2023-02-07T02:26:28.233Z,209.3
2023-02-07T02:28:34.217Z,166.1
2023-02-07T02:29:38.680Z,212.7
2023-02-07T02:33:50.710Z,189.9
2023-02-07T02:38:05.644Z,188.5
2023-02-07T02:40:11.672Z,205.5
2023-02-07T02:42:17.667Z,199.3
2023-02-07T02:44:23.714Z,194.3
2023-02-07T02:46:29.744Z,220.9
2023-02-07T02:52:51.421Z,236.7
2023-02-07T02:54:56.695Z,255.9
2023-02-07T02:57:02.684Z,244.8
2023-02-07T02:59:08.704Z,213.9
2023-02-07T03:03:20.723Z,216.7
2023-02-07T03:05:26.839Z,228.4
2023-02-07T03:07:35.673Z,275.2
2023-02-07T03:09:41.695Z,261.2
2023-02-07T03:11:47.734Z,224.3
2023-02-07T03:13:53.752Z,275.4
2023-02-07T03:15:59.876Z,252.5
2023-02-07T03:20:11.788Z,247.8
2023-02-07T03:22:20.714Z,271.1
2023-02-07T03:24:26.734Z,251.3
2023-02-07T03:26:32.742Z,197.4
2023-02-07T03:27:37.199Z,248.4
2023-02-07T03:31:49.215Z,242.8
2023-02-07T03:38:10.172Z,211.3
2023-02-07T03:42:22.177Z,214.2
2023-02-07T03:44:28.165Z,186.8
2023-02-07T03:48:40.185Z,223.7
2023-02-07T03:50:49.092Z,215.7
2023-02-07T03:52:55.126Z,195.3
2023-02-07T03:55:01.492Z,193.2
2023-02-07T03:57:07.131Z,179.3
2023-02-07T03:59:13.110Z,220.9
2023-02-07T04:01:19.132Z,180
2023-02-07T04:05:33.996Z,211.1
2023-02-07T04:07:39.997Z,214.9
2023-02-07T04:09:46.002Z,169.9
2023-02-07T04:11:52.005Z,228.1
2023-02-07T04:13:58.004Z,204.2
2023-02-07T04:16:04.018Z,148.7
2023-02-07T04:18:09.975Z,185.5
2023-02-07T04:20:18.876Z,194.3
2023-02-07T04:22:24.924Z,166.8
2023-02-07T04:24:30.873Z,176.6
2023-02-07T04:26:56.554Z,193.5
2023-02-07T04:29:02.539Z,178.5
2023-02-07T04:31:08.543Z,219.5
2023-02-07T04:33:17.429Z,155
2023-02-07T04:35:23.380Z,170.4
2023-02-07T04:37:29.403Z,188.9
2023-02-07T04:39:35.345Z,168.2
2023-02-07T04:41:41.346Z,173.4
2023-02-07T04:43:47.304Z,173.8
2023-02-07T04:48:02.175Z,165.7
2023-02-07T04:50:08.121Z,198.9
2023-02-07T04:52:13.952Z,184.3
2023-02-07T04:54:19.953Z,180.4
2023-02-07T04:56:25.920Z,188
2023-02-07T04:58:31.897Z,217.7
2023-02-07T05:00:37.858Z,170.8
2023-02-07T05:06:58.700Z,179.4
2023-02-07T05:11:10.701Z,141.7
2023-02-07T05:17:31.453Z,158.8
2023-02-07T05:19:37.427Z,149.9
2023-02-07T05:21:43.409Z,166.8
2023-02-07T05:22:47.841Z,172.9
2023-02-07T05:26:59.789Z,156
2023-02-07T05:29:05.754Z,172.4
2023-02-07T05:31:14.717Z,216.9
2023-02-07T05:33:20.577Z,200.7
2023-02-07T05:35:26.541Z,185.1
2023-02-07T05:37:32.530Z,180.1
2023-02-07T05:39:38.488Z,191.3
2023-02-07T05:41:44.447Z,158.1
2023-02-07T05:43:50.414Z,177.6
2023-02-07T05:45:59.360Z,183.3
2023-02-07T05:48:05.259Z,146.3
2023-02-07T05:50:11.234Z,152.3
2023-02-07T05:52:17.195Z,149.2
2023-02-07T05:56:29.132Z,146.9
2023-02-07T06:02:49.929Z,162.4
2023-02-07T06:04:55.864Z,161
2023-02-07T06:07:01.815Z,211.7
2023-02-07T06:09:07.744Z,173.8
2023-02-07T06:11:13.691Z,187
2023-02-07T06:13:19.636Z,182.4
2023-02-07T06:15:28.548Z,179.2
2023-02-07T06:17:34.452Z,156.4
2023-02-07T06:19:40.406Z,142.6
2023-02-07T06:22:50.791Z,152.8
2023-02-07T06:24:56.773Z,176.3
2023-02-07T06:27:02.765Z,152.9
2023-02-07T06:29:11.583Z,164.8
2023-02-07T06:31:17.662Z,133.9
2023-02-07T06:33:23.514Z,193.4
2023-02-07T06:35:29.466Z,137.8
2023-02-07T06:37:35.403Z,156.1
2023-02-07T06:39:41.341Z,164.4
2023-02-07T06:41:47.286Z,185.8
2023-02-07T06:43:57.710Z,167.2
2023-02-07T06:46:03.661Z,178.3
2023-02-07T06:48:09.622Z,187.8
2023-02-07T06:52:21.486Z,196.6
2023-02-07T06:54:27.434Z,165.3
2023-02-07T06:58:42.204Z,165.8
2023-02-07T07:00:48.176Z,163
2023-02-07T07:05:00.031Z,181.6
2023-02-07T07:07:06.018Z,175.7
2023-02-07T07:09:11.958Z,169.7
2023-02-07T07:11:17.877Z,147.7
2023-02-07T07:17:38.581Z,210.7
2023-02-07T07:20:48.928Z,223.9
2023-02-07T07:22:54.870Z,200.4
2023-02-07T07:27:09.615Z,258.2
2023-02-07T07:29:15.561Z,209.1
2023-02-07T07:31:21.551Z,253.9
2023-02-07T07:33:27.447Z,210.4
2023-02-07T07:41:54.104Z,237.1
2023-02-07T07:44:00.037Z,241.5
2023-02-07T07:46:06.007Z,220.5
2023-02-07T07:48:11.954Z,251
2023-02-07T07:50:17.984Z,226.1
2023-02-07T07:52:23.814Z,220
2023-02-07T07:54:29.768Z,239
2023-02-07T07:56:38.671Z,241.8
2023-02-07T08:00:50.566Z,249.6
2023-02-07T08:02:56.504Z,273.3
2023-02-07T08:05:02.547Z,331.6
2023-02-07T08:07:08.433Z,269.3
2023-02-07T08:09:14.383Z,329.2
2023-02-07T08:11:23.279Z,340.8
2023-02-07T08:13:32.266Z,294.6
2023-02-07T08:15:35.274Z,288.8
2023-02-07T08:18:00.952Z,295.4
2023-02-07T08:22:12.966Z,293.8
2023-02-07T08:24:21.879Z,349.2
2023-02-07T08:26:27.933Z,266.1
2023-02-07T08:34:52.069Z,297.3
2023-02-07T08:41:13.166Z,264.4
2023-02-07T08:43:19.204Z,233.4
2023-02-07T08:45:25.373Z,250.8
2023-02-07T08:49:37.418Z,199.4
2023-02-07T08:53:52.496Z,203.3
2023-02-07T08:55:58.595Z,192.4
2023-02-07T08:58:04.684Z,182.7
2023-02-07T09:00:10.761Z,199.3
2023-02-07T09:04:22.973Z,182.4
2023-02-07T09:06:29.056Z,163.5
2023-02-07T09:08:38.068Z,160.6
2023-02-07T09:10:46.024Z,174.7
2023-02-07T09:12:50.295Z,155.5
2023-02-07T09:22:22.180Z,133.5
2023-02-07T09:24:28.345Z,139.2
2023-02-07T09:28:40.581Z,121.2
2023-02-07T09:32:52.848Z,97
2023-02-07T09:34:58.991Z,102.6
2023-02-07T09:37:08.051Z,97.1
2023-02-07T09:39:14.194Z,90.7
2023-02-07T09:41:20.356Z,111
2023-02-07T09:43:26.745Z,86.7
2023-02-07T09:47:38.821Z,99.7
2023-02-07T09:51:54.087Z,77.4
2023-02-07T09:54:00.273Z,78.6
2023-02-07T09:56:06.390Z,76.2
2023-02-07T10:00:18.768Z,73.2
2023-02-07T10:02:24.924Z,70.8
2023-02-07T10:04:31.067Z,69.6
2023-02-07T10:06:40.154Z,57
2023-02-07T10:08:46.302Z,57.4
2023-02-07T10:10:52.482Z,79.7
2023-02-07T10:11:57.075Z,72.1
2023-02-07T10:14:03.190Z,70.6
2023-02-07T10:20:24.642Z,56.5
2023-02-07T10:22:30.894Z,52.5
2023-02-07T10:28:49.401Z,45.5
2023-02-07T10:35:10.932Z,46.8
2023-02-07T10:37:17.139Z,48.2
2023-02-07T10:39:23.352Z,54
2023-02-07T10:41:29.595Z,45.6
2023-02-07T10:43:35.811Z,44.9
2023-02-07T10:49:57.385Z,36.6
2023-02-07T10:52:03.655Z,32.5
2023-02-07T10:54:09.869Z,32
2023-02-07T10:58:23.614Z,44
2023-02-07T11:00:28.283Z,29.9
2023-02-07T11:02:34.441Z,46.5
2023-02-07T11:04:43.359Z,30.1
2023-02-07T11:06:49.620Z,34.3
2023-02-07T11:08:55.778Z,39.7
2023-02-07T11:10:00.248Z,27.2
2023-02-07T11:12:06.406Z,29.3
2023-02-07T11:14:12.569Z,23.1
2023-02-07T11:16:18.791Z,31.4
2023-02-07T11:18:27.678Z,24
2023-02-07T11:22:40.017Z,25.2
2023-02-07T11:28:58.332Z,18.5
2023-02-07T11:33:13.495Z,22.1
2023-02-07T11:35:19.643Z,25.4
2023-02-07T11:37:25.825Z,22.5
2023-02-07T11:39:32.003Z,28.6
2023-02-07T11:41:38.191Z,23.2
2023-02-07T11:43:44.353Z,27.1
2023-02-07T11:45:50.539Z,25
2023-02-07T11:47:59.532Z,25
2023-02-07T11:50:05.690Z,20
2023-02-07T11:52:11.890Z,19.9
2023-02-07T11:54:18.104Z,23.6
2023-02-07T11:56:24.256Z,15.8
2023-02-07T11:58:30.438Z,20.5
2023-02-07T12:00:36.630Z,19.9
2023-02-07T12:02:45.623Z,20
2023-02-07T12:04:51.880Z,21
2023-02-07T12:06:57.999Z,13.4
2023-02-07T12:09:23.940Z,25.3
2023-02-07T12:11:30.169Z,16.4
2023-02-07T12:15:45.367Z,24.5
2023-02-07T12:19:57.801Z,22.3
2023-02-07T12:22:04.032Z,19.9
2023-02-07T12:24:10.173Z,20.2
2023-02-07T12:28:22.650Z,25.8
2023-02-07T12:32:38.087Z,17.9
2023-02-07T12:34:44.066Z,25.1
2023-02-07T12:36:50.314Z,14.9
2023-02-07T12:38:56.560Z,19
2023-02-07T12:41:02.734Z,19.9
2023-02-07T12:43:08.962Z,15.2
2023-02-07T12:45:19.585Z,12.4
2023-02-07T12:47:25.760Z,13.6
2023-02-07T12:51:38.243Z,10.5
2023-02-07T12:53:44.442Z,9.2
2023-02-07T13:02:12.240Z,12.4
2023-02-07T13:04:18.405Z,10.4
2023-02-07T13:07:29.172Z,11.4
2023-02-07T13:09:35.366Z,11
2023-02-07T13:11:41.593Z,11.6
2023-02-07T13:13:50.645Z,19.2
2023-02-07T13:15:56.854Z,12.9
2023-02-07T13:18:03.095Z,13.9
2023-02-07T13:24:21.750Z,11.2
2023-02-07T13:26:28.023Z,13
2023-02-07T13:30:43.273Z,11.9
2023-02-07T13:32:49.476Z,11.3
2023-02-07T13:34:55.668Z,14.7
2023-02-07T13:39:08.195Z,13.6
2023-02-07T13:41:14.354Z,26.7
2023-02-07T13:43:23.411Z,8.9
2023-02-07T13:45:29.646Z,11.5
2023-02-07T13:47:35.853Z,14.4
2023-02-07T13:49:42.060Z,15
2023-02-07T13:51:48.317Z,9.4
2023-02-07T13:53:54.519Z,10.3
2023-02-07T13:56:00.758Z,14.3
2023-02-07T13:58:11.311Z,10.4
2023-02-07T14:05:32.977Z,23.2
2023-02-07T14:07:39.168Z,19.5
2023-02-07T14:09:45.379Z,10.8
2023-02-07T14:11:54.402Z,9.3
2023-02-07T14:14:00.638Z,10.4
2023-02-07T14:16:06.937Z,8.8
2023-02-07T14:18:13.039Z,12.2
2023-02-07T14:20:19.274Z,13.1
2023-02-07T14:22:25.467Z,10
2023-02-07T14:24:31.669Z,11.7
2023-02-07T14:26:40.696Z,17.1
2023-02-07T14:30:53.227Z,10.7
2023-02-07T14:37:11.700Z,8.8
2023-02-07T14:39:17.918Z,11.9
2023-02-07T14:41:26.911Z,15.3
2023-02-07T14:45:39.407Z,14.7
2023-02-07T14:49:51.712Z,12.7
2023-02-07T14:51:57.930Z,10.9
2023-02-07T14:56:13.112Z,8.5
2023-02-07T15:01:30.113Z,13
2023-02-07T15:05:42.351Z,11.1
2023-02-07T15:07:48.545Z,11
2023-02-07T15:09:57.515Z,10.6
2023-02-07T15:12:12.980Z,9.3
2023-02-07T15:14:09.904Z,9.4
2023-02-07T15:16:16.227Z,8.8
2023-02-07T15:20:28.498Z,9.3
2023-02-07T15:22:34.677Z,13
2023-02-07T15:24:51.538Z,20.5
2023-02-07T15:26:49.851Z,14.8
2023-02-07T15:28:56.078Z,11.6
2023-02-07T15:31:02.383Z,8.5
2023-02-07T15:33:08.443Z,12.6
2023-02-07T15:35:14.624Z,14.7
2023-02-07T15:37:20.837Z,12
2023-02-07T15:39:29.812Z,9
2023-02-07T15:41:35.988Z,10
2023-02-07T15:43:42.169Z,6.6
2023-02-07T15:45:48.383Z,8.9
2023-02-07T15:47:54.525Z,10.2
2023-02-07T15:50:00.730Z,10.3
2023-02-07T16:00:53.790Z,13.9
2023-02-07T16:03:00.128Z,13.6
2023-02-07T16:05:06.361Z,14
2023-02-07T16:07:15.227Z,12.9
2023-02-07T16:09:21.505Z,18.3
2023-02-07T16:11:27.755Z,13.7
2023-02-07T16:15:40.285Z,14.2
2023-02-07T16:17:46.555Z,18
2023-02-07T16:19:52.802Z,12.6
2023-02-07T16:22:01.975Z,15.5
2023-02-07T16:24:08.227Z,12.7
2023-02-07T16:26:14.468Z,14.3
2023-02-07T16:28:20.790Z,14.4
2023-02-07T16:30:26.991Z,19.5
2023-02-07T16:32:33.216Z,16.4
2023-02-07T16:34:53.907Z,15.7
2023-02-07T16:43:07.305Z,15.2
2023-02-07T16:45:13.540Z,15.3
2023-02-07T16:47:19.764Z,15.9
2023-02-07T16:49:25.969Z,24.9
2023-02-07T16:53:41.341Z,24.4
2023-02-07T16:55:47.491Z,20.7
2023-02-07T16:56:52.038Z,21.1
2023-02-07T16:58:58.236Z,21.9
2023-02-07T17:01:04.469Z,25.3
2023-02-07T17:03:10.644Z,26.3
2023-02-07T17:05:19.736Z,28.1
2023-02-07T17:07:25.929Z,30.2
2023-02-07T17:09:32.129Z,26.6
2023-02-07T17:11:38.283Z,25.6
2023-02-07T17:15:50.672Z,27.6
2023-02-07T17:28:30.606Z,47.3
2023-02-07T17:30:37.032Z,43.8
2023-02-07T17:32:43.221Z,57.9
2023-02-07T17:34:52.022Z,45.9
2023-02-07T17:36:58.177Z,39.7
2023-02-07T17:39:04.370Z,42.1
2023-02-07T17:41:10.485Z,30.6
2023-02-07T17:45:22.792Z,33.2
2023-02-07T17:47:28.915Z,34.5
2023-02-07T17:49:37.970Z,39.1
2023-02-07T17:51:44.113Z,38.7
2023-02-07T17:53:50.236Z,31
2023-02-07T17:54:54.746Z,38.5
2023-02-07T17:57:00.902Z,29.3
2023-02-07T17:59:07.050Z,28.7
2023-02-07T18:01:13.374Z,31.6
2023-02-07T18:05:28.412Z,32.8
2023-02-07T18:09:40.596Z,53.1
2023-02-07T18:13:52.840Z,31.1
2023-02-07T18:15:59.030Z,33.4
2023-02-07T18:18:08.021Z,31.7
2023-02-07T18:20:14.097Z,32.7
2023-02-07T18:22:20.229Z,37.4
2023-02-07T18:24:26.332Z,34.7
2023-02-07T18:26:32.442Z,48.9
2023-02-07T18:28:38.569Z,37.9
2023-02-07T18:30:44.794Z,43.5
2023-02-07T18:32:53.691Z,43.5
2023-02-07T18:34:59.794Z,39.3
2023-02-07T18:37:05.906Z,46.5
2023-02-07T18:39:12.004Z,44.6
2023-02-07T18:41:18.123Z,68.6
2023-02-07T18:45:30.309Z,54.8
2023-02-07T18:47:39.282Z,58.7
2023-02-07T18:49:46.980Z,50.9
2023-02-07T18:51:53.039Z,63.1
2023-02-07T18:52:57.525Z,58.1
2023-02-07T18:55:03.684Z,54.6
2023-02-07T18:57:09.702Z,38.7
2023-02-07T18:59:15.803Z,58.3
2023-02-07T19:09:49.126Z,83.1
2023-02-07T19:16:10.262Z,65
2023-02-07T19:20:22.401Z,66.3
2023-02-07T19:22:35.381Z,61.8
2023-02-07T19:24:34.519Z,68.8
2023-02-07T19:26:40.571Z,73.7
2023-02-07T19:28:46.647Z,75.4
2023-02-07T19:30:55.771Z,72.3
2023-02-07T19:33:01.651Z,72.5
2023-02-07T19:35:07.720Z,66.1
2023-02-07T19:37:13.759Z,63.7
2023-02-07T19:39:19.817Z,85.5
2023-02-07T19:41:25.864Z,83.9
2023-02-07T19:43:31.902Z,70.4
2023-02-07T19:45:40.864Z,73.3
2023-02-07T19:49:52.963Z,69.2
2023-02-07T19:56:31.013Z,75.9
2023-02-07T20:00:46.019Z,83.8
2023-02-07T20:02:52.041Z,76.3
2023-02-07T20:04:58.118Z,92.4
2023-02-07T20:07:04.161Z,90.5
2023-02-07T20:09:10.233Z,80.2
2023-02-07T20:11:16.224Z,103.3
2023-02-07T20:13:25.208Z,96
2023-02-07T20:15:31.257Z,90.5
2023-02-07T20:17:37.324Z,75.2
2023-02-07T20:19:43.334Z,95.7
2023-02-07T20:21:49.391Z,87.3
2023-02-07T20:28:10.464Z,110.1
2023-02-07T20:36:34.544Z,87.9
2023-02-07T20:38:40.586Z,86.4
2023-02-07T20:40:46.594Z,95.8
2023-02-07T20:42:55.533Z,109.4
2023-02-07T20:45:01.563Z,116.1
2023-02-07T20:47:07.588Z,105.3
2023-02-07T20:50:18.070Z,112
2023-02-07T20:52:24.125Z,120.5
2023-02-07T20:56:39.074Z,106.3
2023-02-07T20:58:45.101Z,121.5
2023-02-07T21:02:57.133Z,129.1
2023-02-07T21:07:09.147Z,129.2
2023-02-07T21:09:15.194Z,128.7
2023-02-07T21:11:24.136Z,158.5
2023-02-07T21:13:30.109Z,131.4
2023-02-07T21:15:36.125Z,146.5
2023-02-07T21:17:42.118Z,150.1
2023-02-07T21:19:48.135Z,201.7
2023-02-07T21:21:54.137Z,146.1
2023-02-07T21:26:09.038Z,150.4
2023-02-07T21:30:21.064Z,168
2023-02-07T21:32:27.115Z,180.2
2023-02-07T21:34:33.100Z,169.7
2023-02-07T21:36:39.075Z,182.5
2023-02-07T21:38:45.107Z,196.1
2023-02-07T21:43:00.031Z,148.7
2023-02-07T21:45:06.005Z,161.5
2023-02-07T21:48:16.478Z,172.1
2023-02-07T21:50:22.494Z,166.6
2023-02-07T21:52:28.500Z,143.1
2023-02-07T21:54:37.384Z,145.3
2023-02-07T21:58:49.402Z,156.6
2023-02-07T22:03:01.425Z,136.8
2023-02-07T22:05:07.450Z,131.2
2023-02-07T22:07:13.420Z,148.5
2023-02-07T22:11:28.356Z,136.8
2023-02-07T22:13:34.380Z,141.6
2023-02-07T22:15:40.336Z,124.3
2023-02-07T22:21:58.382Z,149
2023-02-07T22:24:07.277Z,147.5
2023-02-07T22:26:13.292Z,125
2023-02-07T22:28:19.380Z,136.2
2023-02-07T22:34:37.257Z,120.5
2023-02-07T22:36:43.318Z,138
2023-02-07T22:38:52.176Z,126.6
2023-02-07T22:40:58.154Z,129.2
2023-02-07T22:43:04.128Z,132.8
2023-02-07T22:48:20.587Z,152.7
2023-02-07T22:50:26.586Z,151.6
2023-02-07T22:56:47.469Z,147.4
2023-02-07T23:00:59.440Z,140.6
2023-02-07T23:05:11.399Z,132.8
2023-02-07T23:07:20.344Z,123.7
2023-02-07T23:09:26.293Z,131.2
2023-02-07T23:13:38.237Z,136.3
2023-02-07T23:15:44.234Z,142.7
2023-02-07T23:17:50.230Z,118.4
2023-02-07T23:19:56.173Z,142.7
2023-02-07T23:22:05.052Z,152.6
2023-02-07T23:24:11.043Z,136
2023-02-07T23:26:17.024Z,160.6
2023-02-07T23:28:23.004Z,136.3
2023-02-07T23:30:28.992Z,138.8
2023-02-07T23:32:34.970Z,147
2023-02-07T23:34:40.888Z,125.6
2023-02-07T23:36:49.778Z,159.9
2023-02-07T23:41:01.710Z,138.9
2023-02-07T23:43:27.490Z,165.2
2023-02-07T23:45:33.458Z,161.4
2023-02-07T23:47:39.393Z,150.6
2023-02-07T23:49:48.287Z,163.7
2023-02-07T23:51:54.231Z,141.4
2023-02-07T23:54:00.203Z,150.6
2023-02-07T23:56:06.146Z,154
2023-02-07T23:58:12.105Z,153.6
